createdAt,value
2018-11-03T00:09:39.287Z,23.3
2018-11-03T00:19:38.505Z,23.2
2018-11-03T00:29:37.743Z,23.3
2018-11-03T00:39:36.941Z,23.4
2018-11-03T00:49:36.162Z,23.2
2018-11-03T00:59:35.376Z,23.3
2018-11-03T01:09:34.654Z,23.2
2018-11-03T01:19:33.812Z,23.1
2018-11-03T01:29:33.053Z,23.3
2018-11-03T01:39:32.251Z,23.4
2018-11-03T01:49:31.464Z,23.1
2018-11-03T01:59:30.687Z,23.1
2018-11-03T02:09:29.900Z,22.9
2018-11-03T02:19:29.123Z,22.9
2018-11-03T02:29:28.338Z,23
2018-11-03T02:39:27.555Z,23.2
2018-11-03T02:49:26.773Z,23.1
2018-11-03T02:59:25.985Z,23.1
2018-11-03T03:09:25.203Z,23.2
2018-11-03T03:19:24.421Z,23.3
2018-11-03T03:29:23.699Z,23
2018-11-03T03:39:22.860Z,23.3
2018-11-03T03:49:22.076Z,23.4
2018-11-03T03:59:21.302Z,23.4
2018-11-03T04:09:20.513Z,23.3
2018-11-03T04:19:19.721Z,22.9
2018-11-03T04:29:18.955Z,23.1
2018-11-03T04:39:18.156Z,23.2
2018-11-03T04:49:17.377Z,23.1
2018-11-03T04:59:16.590Z,23
2018-11-03T05:09:15.811Z,23
2018-11-03T05:19:15.025Z,22.8
2018-11-03T05:29:14.237Z,23
2018-11-03T05:39:13.460Z,23.1
2018-11-03T05:49:12.687Z,23.1
2018-11-03T05:59:11.894Z,23.1
2018-11-03T06:09:11.107Z,23.4
2018-11-03T06:19:10.327Z,23.6
2018-11-03T06:29:09.546Z,23.7
2018-11-03T06:39:08.870Z,23.7
2018-11-03T06:49:07.979Z,23.9
2018-11-03T06:59:07.196Z,24.1
2018-11-03T07:09:06.416Z,24.5
2018-11-03T07:19:05.633Z,24.8
2018-11-03T07:29:04.852Z,25
2018-11-03T07:39:04.072Z,25
2018-11-03T07:49:03.396Z,24.6
2018-11-03T07:59:02.504Z,24.8
2018-11-03T08:09:01.790Z,24.8
2018-11-03T08:19:00.945Z,25
2018-11-03T08:29:00.217Z,25.1
2018-11-03T08:38:59.380Z,25.3
2018-11-03T08:48:58.673Z,25.5
2018-11-03T08:58:57.817Z,25.7
2018-11-03T09:08:57.032Z,25.7
2018-11-03T09:18:56.252Z,25.6
2018-11-03T09:28:55.471Z,25.3
2018-11-03T09:38:54.714Z,25.6
2018-11-03T09:48:53.907Z,25.6
2018-11-03T09:58:53.169Z,25.2
2018-11-03T10:08:52.347Z,25.4
2018-11-03T10:18:51.557Z,25.7
2018-11-03T10:28:50.791Z,25.8
2018-11-03T10:38:50.006Z,25.4
2018-11-03T10:48:49.216Z,25.1
2018-11-03T10:58:48.434Z,25
2018-11-03T11:08:47.655Z,24.9
2018-11-03T11:18:46.870Z,24.9
2018-11-03T11:28:46.089Z,24.5
2018-11-03T11:38:45.302Z,24.9
2018-11-03T11:48:44.525Z,25.2
2018-11-03T11:58:43.741Z,25.8
2018-11-03T12:08:42.963Z,25.7
2018-11-03T12:18:42.174Z,25.5
2018-11-03T12:28:41.391Z,24.9
2018-11-03T12:38:40.641Z,25.3
2018-11-03T12:48:39.843Z,25.8
2018-11-03T12:58:39.053Z,25.6
2018-11-03T13:08:38.267Z,25.4
2018-11-03T13:18:37.481Z,25.6
2018-11-03T13:28:36.703Z,25.7
2018-11-03T13:38:35.921Z,24.9
2018-11-03T13:48:35.135Z,25.2
2018-11-03T13:58:34.360Z,25.3
2018-11-03T14:08:33.569Z,25.4
2018-11-03T14:18:32.791Z,25.4
2018-11-03T14:28:32.016Z,25.8
2018-11-03T14:38:31.237Z,25.8
2018-11-03T14:48:30.438Z,25.2
2018-11-03T14:58:29.655Z,25.2
2018-11-03T15:08:28.910Z,25
2018-11-03T15:18:28.098Z,24.7
2018-11-03T15:28:27.310Z,24.9
2018-11-03T15:38:26.528Z,25.1
2018-11-03T15:48:25.754Z,24.9
2018-11-03T15:58:25.045Z,25.1
2018-11-03T16:08:24.187Z,25.1
2018-11-03T16:18:23.402Z,24.4
2018-11-03T16:28:22.666Z,24.3
2018-11-03T16:38:21.884Z,23.9
2018-11-03T16:48:21.057Z,23.9
2018-11-03T16:58:20.267Z,23.7
2018-11-03T17:08:19.486Z,23.7
2018-11-03T17:18:18.701Z,23.8
2018-11-03T17:28:17.924Z,23.7
2018-11-03T17:38:17.141Z,23.5
2018-11-03T17:48:16.360Z,23.6
2018-11-03T17:58:15.576Z,23.6
2018-11-03T18:08:14.794Z,23.8
2018-11-03T18:18:14.007Z,23.7
2018-11-03T18:28:13.237Z,23.7
2018-11-03T18:38:12.441Z,23.6
2018-11-03T18:48:11.662Z,23.7
2018-11-03T18:58:10.883Z,23.6
2018-11-03T19:08:10.108Z,23.5
2018-11-03T19:18:09.315Z,23.6
2018-11-03T19:28:08.542Z,23.4
2018-11-03T19:38:07.759Z,23.4
2018-11-03T19:48:06.985Z,23.3
2018-11-03T19:58:06.192Z,23.2
2018-11-03T20:08:05.404Z,23.1
2018-11-03T20:18:04.661Z,23.2
2018-11-03T20:28:03.845Z,23.4
2018-11-03T20:38:03.064Z,23.4
2018-11-03T20:48:02.274Z,23
2018-11-03T20:58:01.496Z,23.1
2018-11-03T21:08:00.768Z,22.9
2018-11-03T21:17:59.928Z,22.8
2018-11-03T21:27:59.139Z,22.9
2018-11-03T21:37:58.358Z,23.9
2018-11-03T21:47:57.580Z,23.9
2018-11-03T21:57:56.789Z,23.6
2018-11-03T22:07:56.005Z,23.4
2018-11-03T22:17:55.223Z,23.1
2018-11-03T22:27:54.503Z,22.7
2018-11-03T22:37:53.654Z,23
2018-11-03T22:47:52.875Z,23
2018-11-03T22:57:52.092Z,22.8
2018-11-03T23:07:51.331Z,23.1
2018-11-03T23:17:50.524Z,22.9
2018-11-03T23:27:49.735Z,22.8
2018-11-03T23:37:48.956Z,23.3
2018-11-03T23:47:48.172Z,23.6
2018-11-03T23:57:47.395Z,23.2
